KIKK

Greater Kankakee Airport

Kankakee, Illinois, USA
METAR KIKK 222055Z AUTO 29011KT 10SM CLR 18/02 A3006 RMK AO2 T01800022
Observed Flight Rules
Oct-22 @ 20:55 UTC (31 minutes ago) Visual Flight Rules
Wind Visibility Clouds
290° at 11 knots 10 miles
  • Clear skies
Temperatures Readings
Current 18°C / 64°F
Dewpoint 2°C / 36°F
Humidity 34%
Altimeter 30.06" Hg
Pressure 1018 hPa
Elevation 192
METAR KIKK 222055Z AUTO 29011KT 10SM CLR 18/02 A3006 RMK AO2 T01800022
Observed Flight Rules
Oct-22 @ 20:55 UTC
(31 minutes ago)
VFR
Wind Visibility
290° at 11 knots 10 miles
Clouds
  • Clear skies
Temperature Dewpoint
18°C / 64°F 2°C / 36°F
Humidity Altimeter Pressure
34% 30.06" Hg 1018 hPa